This is the latest recevied weather packets stored in our database for station/object OK3FM-14. If no packets are shown the sender has not sent any weather packets the latest 10 day(s).
| Time | Temp. | Humidity | Pressure | Rain* | Wind** | Luminosity | Snow |
|---|---|---|---|---|---|---|---|
| 1787654833 | 18.89° C | 46% | 1015.9 hPa | - | - | - | - |
| 1787654233 | 19.44° C | 45% | 1016 hPa | - | - | - | - |
| 1787653633 | 20° C | 45% | 1015.9 hPa | - | - | - | - |
| 1787653039 | 19.44° C | 46% | 1016.1 hPa | - | - | - | - |
| 1787652432 | 20° C | 46% | 1016 hPa | - | - | - | - |
| 1787651832 | 18.89° C | 47% | 1016.1 hPa | - | - | - | - |
| 1787651232 | 18.89° C | 47% | 1016.1 hPa | - | - | - | - |
| 1787650632 | 18.89° C | 49% | 1016 hPa | - | - | - | - |
| 1787650032 | 18.89° C | 48% | 1016 hPa | - | - | - | - |
| 1787649432 | 18.89° C | 49% | 1016 hPa | - | - | - | - |
| 1787648832 | 18.33° C | 49% | 1016 hPa | - | - | - | - |
| 1787648232 | 18.89° C | 50% | 1016.2 hPa | - | - | - | - |
| 1787647632 | 18.33° C | 49% | 1016.2 hPa | - | - | - | - |
| 1787647032 | 18.33° C | 51% | 1016.1 hPa | - | - | - | - |
| 1787646432 | 17.78° C | 53% | 1016.2 hPa | - | - | - | - |
| 1787645832 | 16.67° C | 55% | 1016.2 hPa | - | - | - | - |
| 1787644632 | 17.22° C | 53% | 1016.2 hPa | - | - | - | - |
| 1787644032 | 17.22° C | 53% | 1016.3 hPa | - | - | - | - |
| 1787643432 | 16.67° C | 55% | 1016.3 hPa | - | - | - | - |
| 1787642832 | 16.11° C | 57% | 1016.2 hPa | - | - | - | - |
| 1787642232 | 16.67° C | 55% | 1016.2 hPa | - | - | - | - |
| 1787641632 | 16.67° C | 55% | 1016.2 hPa | - | - | - | - |
| 1787641032 | 15.56° C | 58% | 1016.4 hPa | - | - | - | - |
| 1787640432 | 16.11° C | 57% | 1016.6 hPa | - | - | - | - |
| 1787639832 | 16.11° C | 58% | 1016.6 hPa | - | - | - | - |
* Rain since midnight (hover to see other rain measurements)
** Current wind speed in m/s (hover to see current wind gust speed)